Terminal Aerodrome Forecast
Issued by NWS

Home | Current Version | Previous Version | Text Only | Print | Product List | Glossary On
Versions: 1 2 3 4 5 6 7 8 9 10 11 12 13 14 15 16 17 18
876
FTUS43 KDLH 261731
TAFHIB
TAF
KHIB 261731Z 2618/2718 09012G20KT P6SM BKN080
     FM262000 08015KT P6SM SCT080
     FM270200 08005KT P6SM SCT250
     FM271400 08012G20KT P6SM SCT040=

USA.gov is the U.S. government's official web portal to all federal, state and local government web resources and services.